PORT of ADELAIDE

Land: Australia Land: Australia (AU)
Latitude / Longitude: -34.80684° / 138.5082° Toon op kaart Toon op kaart
Lokale Tijd:  UTC +9.5
UN/LOCODE: AUADL
Schepen momenteel in haven: 13
Verwachte aankomsten: 10

Recente Aankomst- en Vertrektijden


Scheepsnaam
Aankomst (UTC)
Aankomst (LT)
Vertrek (UTC)
Vertrek (LT)
Vessel Type: Sleepboot, Loods etc  C\GUARD INTREPID 2014-09-21 00:31:00 2014-09-21 10:01:00 2014-09-21 00:43:00 2014-09-21 10:13:00
Vessel Type: Cargoschip  ACCOLADE II 2014-09-20 12:27:00 2014-09-20 21:57:00 2014-09-21 00:31:00 2014-09-21 10:01:00
Vessel Type: Sleepboot, Loods etc  C\GUARD INTREPID 2014-09-14 01:11:00 2014-09-14 10:41:00 2014-09-21 00:06:00 2014-09-21 09:36:00
Vessel Type: Sleepboot, Loods etc  PILOT VSL NORMANCARR 2014-09-20 22:41:00 2014-09-21 08:11:00
Vessel Type: Sleepboot, Loods etc  PILOT VSL NORMANCARR 2014-09-20 18:51:00 2014-09-21 04:21:00 2014-09-20 22:11:00 2014-09-21 07:41:00
Vessel Type: Tankers  TANDARA SPIRIT 2014-09-18 21:10:00 2014-09-19 06:40:00 2014-09-20 22:10:00 2014-09-21 07:40:00
Vessel Type: Cargoschip  ANL WHYALLA 2014-09-20 19:10:00 2014-09-21 04:40:00
Vessel Type: Sleepboot, Loods etc  BURRA 2014-09-20 19:09:00 2014-09-21 04:39:00
Vessel Type: Sleepboot, Loods etc  WALAN 2014-09-20 19:09:00 2014-09-21 04:39:00
Vessel Type: Sleepboot, Loods etc  WALAN 2014-09-19 04:50:00 2014-09-19 14:20:00 2014-09-20 19:00:00 2014-09-21 04:30:00

Verwachte aankomsten


Scheepsnaam
Scheduled Arrival (UTC)
Geplande Aankomst (lokale tijd)
Geschatte Aankomsttijd (UTC)
Geschatte Aankomsttijd (Lokaal)
Vessel Type: Cargoschip  MSC MANDRAKI 2014-09-21 07:00:00 2014-09-21 16:30:00 2014-09-21 07:40:00 2014-09-21 17:10:00
Vessel Type: Cargoschip  PORT PEGASUS 2014-09-21 20:00:00 2014-09-22 05:30:00 2014-09-21 09:26:00 2014-09-21 18:56:00
Vessel Type: Cargoschip  CORAL BAY 2014-09-22 04:00:00 2014-09-22 13:30:00 2014-09-21 14:05:00 2014-09-21 23:35:00
Vessel Type: Cargoschip  CLIPPER MISTRAL 2014-09-22 12:00:00 2014-09-22 21:30:00 2014-09-25 14:26:00 2014-09-25 23:56:00
Vessel Type: Tankers  BRITISH FIDELITY 2014-09-24 06:30:00 2014-09-24 16:00:00 2014-09-23 23:53:00 2014-09-24 09:23:00
Vessel Type: Cargoschip  MARE BRITANNICUM 2014-09-24 14:00:00 2014-09-24 23:30:00 2014-09-23 23:28:00 2014-09-24 08:58:00
Vessel Type: Cargoschip  LAURA BULKER 2014-09-25 11:00:00 2014-09-25 20:30:00 2014-09-24 04:19:00 2014-09-24 13:49:00
Vessel Type: Cargoschip  VEREINA 2014-09-25 12:00:00 2014-09-25 21:30:00 2014-09-24 08:15:00 2014-09-24 17:45:00
Vessel Type: Tankers  GOLDEN TAKA 2014-09-27 01:30:00 2014-09-27 11:00:00 2014-09-26 12:11:00 2014-09-26 21:41:00
Vessel Type: Cargoschip  ROME TRADER 2014-09-27 02:30:00 2014-09-27 12:00:00 2014-09-26 19:23:00 2014-09-27 04:53:00

Wind Forecast


    
Tijd (UTC)
Snelheid
Direction
Temperature
2014-09-21 00:00:00 6 knots 60° 14°C
2014-09-21 03:00:00 3 knots 51° 16°C
2014-09-21 06:00:00 2 knots 66° 17°C
2014-09-21 09:00:00 12 knots 45° 12°C
2014-09-21 12:00:00 9 knots 35° 15°C
2014-09-21 15:00:00 7 knots 26° 18°C
2014-09-21 18:00:00 6 knots 41° 18°C
2014-09-21 21:00:00 9 knots 79° 17°C
2014-09-22 00:00:00 13 knots 68° 16°C
2014-09-22 03:00:00 14 knots 55° 15°C
2014-09-22 06:00:00 14 knots 55° 14°C
2014-09-22 09:00:00 14 knots 56° 14°C
2014-09-22 12:00:00 12 knots 42° 17°C
2014-09-22 15:00:00 12 knots 39° 19°C
2014-09-22 18:00:00 10 knots 46° 20°C
2014-09-22 21:00:00 14 knots 60° 18°C
2014-09-23 00:00:00 6 knots 28° 16°C